createdAt,value
2022-12-20T00:01:58.917Z,1.60
2022-12-20T00:04:26.238Z,1.50
2022-12-20T00:06:53.441Z,1.60
2022-12-20T00:09:20.369Z,1.60
2022-12-20T00:11:47.557Z,1.60
2022-12-20T00:14:14.704Z,1.60
2022-12-20T00:16:41.855Z,1.50
2022-12-20T00:19:11.451Z,1.50
2022-12-20T00:21:38.667Z,1.50
2022-12-20T00:24:09.826Z,1.60
2022-12-20T00:26:39.441Z,1.50
2022-12-20T00:29:09.211Z,1.50
2022-12-20T00:31:36.790Z,1.50
2022-12-20T00:34:03.778Z,1.40
2022-12-20T00:36:33.053Z,1.40
2022-12-20T00:39:03.275Z,1.50
2022-12-20T00:41:34.873Z,1.50
2022-12-20T00:44:03.107Z,1.60
2022-12-20T00:46:32.240Z,1.70
2022-12-20T00:48:59.386Z,1.80
2022-12-20T00:51:28.987Z,1.90
2022-12-20T00:53:59.214Z,1.90
2022-12-20T00:56:26.266Z,1.90
2022-12-20T00:58:58.514Z,1.90
2022-12-20T01:01:28.727Z,2.00
2022-12-20T01:03:57.007Z,1.90
2022-12-20T01:06:30.379Z,1.90
2022-12-20T01:08:58.446Z,1.90
2022-12-20T01:11:30.322Z,2.00
2022-12-20T01:14:00.292Z,2.00
2022-12-20T01:16:32.269Z,1.90
2022-12-20T01:19:00.124Z,2.00
2022-12-20T01:21:27.836Z,2.00
2022-12-20T01:23:57.775Z,2.00
2022-12-20T01:26:28.814Z,2.00
2022-12-20T01:28:59.113Z,2.00
2022-12-20T01:31:27.452Z,2.00
2022-12-20T01:33:54.598Z,2.00
2022-12-20T01:36:28.269Z,2.10
2022-12-20T01:39:09.843Z,2.00
2022-12-20T01:41:40.870Z,2.00
2022-12-20T01:44:28.183Z,1.90
2022-12-20T01:46:57.897Z,1.90
2022-12-20T01:49:24.884Z,1.90
2022-12-20T01:52:12.137Z,2.00
2022-12-20T01:54:43.852Z,2.00
2022-12-20T01:57:28.194Z,2.10
2022-12-20T01:59:56.851Z,2.10
2022-12-20T02:02:24.228Z,2.20
2022-12-20T02:04:51.342Z,2.30
2022-12-20T02:07:24.247Z,2.30
2022-12-20T02:09:52.194Z,2.30
2022-12-20T02:12:24.669Z,2.30
2022-12-20T02:15:16.035Z,2.30
2022-12-20T02:17:59.174Z,2.30
2022-12-20T02:20:47.513Z,2.40
2022-12-20T02:23:48.809Z,2.30
2022-12-20T02:26:30.943Z,2.20
2022-12-20T02:29:02.271Z,2.10
2022-12-20T02:31:38.014Z,2.00
2022-12-20T02:34:07.786Z,2.00
2022-12-20T02:36:37.132Z,1.90
2022-12-20T02:39:04.681Z,1.90
2022-12-20T02:41:57.861Z,1.90
2022-12-20T02:44:47.260Z,1.90
2022-12-20T02:47:27.232Z,1.90
2022-12-20T02:49:55.748Z,1.80
2022-12-20T02:52:31.072Z,1.80
2022-12-20T02:55:00.104Z,1.90
2022-12-20T02:58:00.989Z,1.90
2022-12-20T03:00:32.146Z,2.00
2022-12-20T03:03:24.191Z,1.90
2022-12-20T03:05:55.366Z,1.90
2022-12-20T03:08:25.116Z,1.90
2022-12-20T03:10:52.805Z,1.90
2022-12-20T03:13:24.245Z,1.90
2022-12-20T03:15:56.791Z,1.80
2022-12-20T03:18:23.777Z,1.80
2022-12-20T03:20:53.347Z,1.80
2022-12-20T03:23:22.171Z,1.70
2022-12-20T03:25:49.705Z,1.70
2022-12-20T03:28:28.859Z,1.60
2022-12-20T03:30:57.127Z,1.50
2022-12-20T03:33:26.538Z,1.40
2022-12-20T03:35:54.525Z,1.40
2022-12-20T03:38:21.546Z,1.40
2022-12-20T03:40:51.243Z,1.40
2022-12-20T03:43:23.337Z,1.40
2022-12-20T03:45:50.470Z,1.50
2022-12-20T03:48:18.215Z,1.60
2022-12-20T03:50:45.187Z,1.60
2022-12-20T03:53:12.306Z,1.60
2022-12-20T03:55:44.088Z,1.60
2022-12-20T03:58:12.715Z,1.70
2022-12-20T04:00:39.657Z,1.80
2022-12-20T04:03:32.563Z,1.70
2022-12-20T04:06:01.896Z,1.70
2022-12-20T04:08:31.289Z,1.90
2022-12-20T04:11:18.640Z,2.00
2022-12-20T04:14:00.865Z,2.10
2022-12-20T04:16:29.677Z,2.20
2022-12-20T04:18:59.513Z,2.10
2022-12-20T04:21:34.353Z,2.00
2022-12-20T04:24:05.610Z,2.10
2022-12-20T04:26:58.468Z,2.00
2022-12-20T04:29:25.487Z,2.00
2022-12-20T04:31:54.961Z,2.00
2022-12-20T04:34:25.095Z,2.10
2022-12-20T04:36:52.244Z,2.10
2022-12-20T04:39:34.343Z,2.00
2022-12-20T04:42:20.273Z,2.10
2022-12-20T04:44:47.962Z,2.20
2022-12-20T04:47:20.009Z,2.20
2022-12-20T04:49:49.249Z,2.20
2022-12-20T04:52:34.993Z,2.20
2022-12-20T04:55:04.558Z,2.20
2022-12-20T04:57:33.662Z,2.10
2022-12-20T05:00:04.389Z,2.10
2022-12-20T05:02:32.979Z,2.10
2022-12-20T05:05:07.987Z,2.10
2022-12-20T05:07:40.743Z,2.10
2022-12-20T05:10:10.880Z,2.10
2022-12-20T05:12:40.711Z,2.10
2022-12-20T05:15:12.736Z,2.20
2022-12-20T05:17:41.157Z,2.20
2022-12-20T05:20:08.826Z,2.30
2022-12-20T05:22:56.732Z,2.20
2022-12-20T05:25:44.520Z,2.20
2022-12-20T05:28:13.087Z,2.30
2022-12-20T05:30:40.501Z,2.20
2022-12-20T05:33:12.900Z,2.10
2022-12-20T05:35:46.672Z,2.10
2022-12-20T05:38:17.948Z,2.30
2022-12-20T05:40:48.493Z,2.30
2022-12-20T05:43:20.969Z,2.20
2022-12-20T05:45:52.533Z,2.10
2022-12-20T05:48:29.128Z,2.00
2022-12-20T05:50:56.223Z,2.10
2022-12-20T05:53:26.828Z,2.10
2022-12-20T05:56:03.146Z,2.20
2022-12-20T05:58:35.598Z,2.30
2022-12-20T06:01:07.011Z,2.30
2022-12-20T06:03:41.478Z,2.20
2022-12-20T06:06:16.248Z,2.30
2022-12-20T06:08:49.176Z,2.30
2022-12-20T06:11:29.627Z,2.20
2022-12-20T06:14:12.019Z,2.10
2022-12-20T06:16:44.245Z,2.20
2022-12-20T06:19:17.512Z,2.20
2022-12-20T06:21:48.364Z,2.30
2022-12-20T06:24:19.032Z,2.30
2022-12-20T06:26:46.159Z,2.30
2022-12-20T06:29:17.588Z,2.30
2022-12-20T06:31:50.657Z,2.40
2022-12-20T06:34:18.486Z,2.40
2022-12-20T06:36:48.173Z,2.50
2022-12-20T06:39:20.162Z,2.60
2022-12-20T06:41:59.742Z,2.50
2022-12-20T06:44:26.942Z,2.50
2022-12-20T06:46:53.888Z,2.60
2022-12-20T06:49:22.442Z,2.70
2022-12-20T06:51:51.413Z,2.80
2022-12-20T06:54:25.523Z,2.80
2022-12-20T06:56:52.509Z,2.70
2022-12-20T06:59:19.987Z,2.70
2022-12-20T07:01:47.248Z,2.60
2022-12-20T07:04:14.255Z,2.60
2022-12-20T07:06:43.413Z,2.70
2022-12-20T07:09:12.500Z,2.60
2022-12-20T07:11:39.529Z,2.60
2022-12-20T07:14:06.868Z,2.60
2022-12-20T07:16:34.078Z,2.50
2022-12-20T07:19:01.119Z,2.50
2022-12-20T07:21:30.334Z,2.50
2022-12-20T07:23:59.512Z,2.50
2022-12-20T07:26:28.902Z,2.50
2022-12-20T07:28:58.066Z,2.50
2022-12-20T07:31:27.476Z,2.50
2022-12-20T07:33:54.523Z,2.60
2022-12-20T07:36:21.477Z,2.70
2022-12-20T07:38:49.213Z,2.80
2022-12-20T07:41:18.418Z,2.90
2022-12-20T07:43:46.718Z,2.90
2022-12-20T07:46:15.439Z,3.00
2022-12-20T07:48:42.878Z,3.20
2022-12-20T07:51:14.803Z,3.10
2022-12-20T07:53:48.032Z,3.00
2022-12-20T07:56:16.324Z,3.10
2022-12-20T07:58:44.368Z,3.20
2022-12-20T08:01:13.020Z,3.30
2022-12-20T08:03:49.799Z,3.50
2022-12-20T08:06:17.834Z,3.50
2022-12-20T08:08:51.736Z,3.50
2022-12-20T08:11:20.277Z,3.60
2022-12-20T08:13:52.677Z,3.70
2022-12-20T08:16:23.075Z,3.70
2022-12-20T08:18:49.888Z,3.90
2022-12-20T08:21:16.850Z,3.90
2022-12-20T08:23:43.792Z,4.00
2022-12-20T08:26:10.899Z,4.20
2022-12-20T08:28:43.556Z,4.30
2022-12-20T08:31:11.020Z,4.30
2022-12-20T08:33:39.029Z,4.40
2022-12-20T08:36:12.756Z,4.40
2022-12-20T08:38:43.017Z,4.40
2022-12-20T08:41:15.876Z,4.50
2022-12-20T08:43:45.551Z,4.60
2022-12-20T08:46:12.782Z,4.70
2022-12-20T08:48:40.606Z,4.80
2022-12-20T08:51:14.449Z,4.90
2022-12-20T08:53:43.752Z,5.00
2022-12-20T08:56:16.308Z,5.20
2022-12-20T08:58:47.238Z,5.00
2022-12-20T09:01:20.158Z,5.20
2022-12-20T09:03:48.444Z,5.10
2022-12-20T09:06:21.179Z,4.80
2022-12-20T09:08:53.194Z,5.00
2022-12-20T09:11:22.809Z,5.10
2022-12-20T09:13:52.227Z,5.30
2022-12-20T09:16:27.685Z,5.50
2022-12-20T09:19:04.247Z,5.60
2022-12-20T09:21:34.719Z,5.70
2022-12-20T09:24:01.823Z,5.70
2022-12-20T09:26:28.861Z,5.50
2022-12-20T09:28:58.893Z,5.60
2022-12-20T09:31:31.258Z,5.60
2022-12-20T09:34:02.451Z,5.80
2022-12-20T09:36:32.927Z,5.80
2022-12-20T09:39:02.387Z,6.00
2022-12-20T09:41:37.316Z,6.00
2022-12-20T09:44:24.990Z,6.20
2022-12-20T09:47:08.262Z,6.30
2022-12-20T09:49:41.791Z,6.30
2022-12-20T09:52:27.011Z,6.40
2022-12-20T09:55:14.349Z,6.30
2022-12-20T09:58:23.073Z,6.50
2022-12-20T10:00:54.165Z,6.70
2022-12-20T10:03:29.554Z,6.90
2022-12-20T10:06:06.153Z,7.20
2022-12-20T10:08:45.139Z,6.90
2022-12-20T10:11:28.070Z,7.00
2022-12-20T10:14:12.911Z,6.90
2022-12-20T10:16:49.296Z,6.80
2022-12-20T10:19:16.357Z,6.50
2022-12-20T10:21:55.567Z,6.40
2022-12-20T10:24:34.355Z,6.20
2022-12-20T10:27:15.440Z,6.10
2022-12-20T10:29:46.446Z,6.00
2022-12-20T10:32:18.793Z,6.00
2022-12-20T10:34:53.965Z,5.90
2022-12-20T10:37:20.969Z,5.90
2022-12-20T10:39:50.997Z,5.80
2022-12-20T10:42:39.711Z,5.80
2022-12-20T10:45:17.968Z,5.70
2022-12-20T10:47:46.427Z,5.40
2022-12-20T10:50:18.921Z,5.30
2022-12-20T10:53:19.357Z,5.40
2022-12-20T10:55:46.420Z,5.40
2022-12-20T10:58:30.927Z,5.40
2022-12-20T11:01:28.506Z,5.20
2022-12-20T11:04:18.944Z,5.20
2022-12-20T11:06:46.268Z,5.30
2022-12-20T11:09:13.387Z,5.30
2022-12-20T11:11:56.942Z,5.40
2022-12-20T11:14:23.968Z,5.50
2022-12-20T11:17:00.607Z,5.40
2022-12-20T11:20:02.590Z,5.10
2022-12-20T11:22:38.567Z,4.90
2022-12-20T11:25:23.161Z,5.20
2022-12-20T11:27:59.932Z,5.30
2022-12-20T11:30:41.458Z,5.60
2022-12-20T11:33:37.541Z,5.80
2022-12-20T11:36:28.935Z,5.90
2022-12-20T11:38:58.924Z,6.10
2022-12-20T11:41:55.883Z,6.20
2022-12-20T11:45:08.417Z,6.40
2022-12-20T11:48:03.727Z,6.70
2022-12-20T11:50:57.430Z,6.70
2022-12-20T11:53:59.628Z,6.60
2022-12-20T11:56:38.616Z,6.50
2022-12-20T11:59:30.795Z,6.20
2022-12-20T12:02:09.044Z,6.10
2022-12-20T12:04:48.884Z,6.30
2022-12-20T12:07:41.819Z,6.30
2022-12-20T12:10:27.212Z,6.30
2022-12-20T12:13:13.386Z,5.90
2022-12-20T12:15:46.666Z,5.70
2022-12-20T12:18:31.389Z,5.70
2022-12-20T12:21:20.034Z,5.70
2022-12-20T12:24:13.926Z,6.00
2022-12-20T12:26:41.494Z,6.50
2022-12-20T12:29:11.139Z,6.80
2022-12-20T12:31:49.973Z,6.90
2022-12-20T12:34:38.767Z,6.70
2022-12-20T12:37:35.593Z,6.60
2022-12-20T12:40:10.655Z,6.40
2022-12-20T12:43:08.565Z,6.70
2022-12-20T12:45:51.737Z,6.30
2022-12-20T12:48:22.648Z,6.30
2022-12-20T12:50:52.968Z,6.30
2022-12-20T12:53:35.513Z,6.30
2022-12-20T12:56:44.102Z,6.30
2022-12-20T12:59:30.978Z,6.40
2022-12-20T13:02:11.115Z,6.50
2022-12-20T13:05:09.833Z,6.60
2022-12-20T13:07:37.018Z,6.50
2022-12-20T13:10:15.380Z,6.30
2022-12-20T13:12:42.351Z,6.30
2022-12-20T13:15:21.821Z,6.20
2022-12-20T13:17:54.208Z,6.20
2022-12-20T13:20:32.688Z,6.20
2022-12-20T13:23:07.466Z,6.30
2022-12-20T13:25:37.478Z,6.40
2022-12-20T13:28:16.669Z,6.40
2022-12-20T13:31:08.030Z,6.30
2022-12-20T13:33:49.607Z,6.30
2022-12-20T13:36:16.702Z,6.40
2022-12-20T13:38:44.854Z,6.40
2022-12-20T13:41:35.963Z,6.50
2022-12-20T13:44:08.980Z,6.30
2022-12-20T13:46:54.102Z,6.40
2022-12-20T13:49:26.163Z,6.40
2022-12-20T13:52:11.253Z,6.40
2022-12-20T13:54:45.815Z,6.40
2022-12-20T13:57:43.219Z,6.30
2022-12-20T14:00:25.631Z,6.50
2022-12-20T14:02:58.156Z,6.50
2022-12-20T14:05:43.539Z,6.50
2022-12-20T14:08:25.957Z,6.40
2022-12-20T14:10:53.562Z,6.50
2022-12-20T14:13:26.423Z,6.60
2022-12-20T14:15:56.528Z,6.60
2022-12-20T14:18:25.836Z,6.80
2022-12-20T14:20:58.071Z,6.90
2022-12-20T14:23:47.957Z,6.90
2022-12-20T14:26:21.198Z,6.90
2022-12-20T14:28:56.579Z,6.80
2022-12-20T14:31:28.589Z,6.70
2022-12-20T14:34:10.612Z,6.80
2022-12-20T14:36:40.135Z,6.70
2022-12-20T14:39:26.567Z,6.60
2022-12-20T14:41:59.386Z,6.40
2022-12-20T14:44:28.968Z,6.30
2022-12-20T14:47:01.272Z,6.20
2022-12-20T14:49:31.445Z,6.20
2022-12-20T14:52:15.220Z,6.10
2022-12-20T14:55:08.242Z,5.90
2022-12-20T14:57:52.017Z,5.90
2022-12-20T15:00:19.007Z,5.70
2022-12-20T15:02:46.158Z,5.70
2022-12-20T15:05:35.478Z,5.50
2022-12-20T15:08:19.669Z,5.50
2022-12-20T15:10:54.959Z,5.50
2022-12-20T15:13:37.436Z,5.40
2022-12-20T15:16:13.901Z,5.50
2022-12-20T15:18:41.078Z,5.50
2022-12-20T15:21:13.934Z,5.50
2022-12-20T15:23:49.007Z,5.40
2022-12-20T15:26:19.800Z,5.20
2022-12-20T15:28:46.926Z,5.20
2022-12-20T15:31:22.976Z,5.20
2022-12-20T15:33:58.117Z,5.20
2022-12-20T15:36:29.538Z,5.10
2022-12-20T15:39:15.523Z,5.20
2022-12-20T15:41:47.516Z,5.30
2022-12-20T15:44:22.151Z,5.10
2022-12-20T15:46:54.786Z,5.10
2022-12-20T15:49:29.947Z,5.00
2022-12-20T15:51:57.319Z,5.00
2022-12-20T15:54:31.893Z,5.00
2022-12-20T15:57:07.533Z,5.00
2022-12-20T16:02:29.091Z,4.80
2022-12-20T16:04:56.827Z,4.80
2022-12-20T16:07:26.355Z,4.80
2022-12-20T16:09:54.151Z,4.70
2022-12-20T16:12:39.485Z,4.60
2022-12-20T16:15:08.254Z,4.60
2022-12-20T16:17:35.437Z,4.60
2022-12-20T16:20:02.627Z,4.60
2022-12-20T16:22:29.771Z,4.70
2022-12-20T16:24:56.908Z,4.70
2022-12-20T16:27:24.279Z,4.70
2022-12-20T16:29:51.267Z,4.70
2022-12-20T16:32:22.148Z,4.70
2022-12-20T16:34:50.307Z,4.70
2022-12-20T16:37:17.373Z,4.80
2022-12-20T16:39:44.899Z,4.80
2022-12-20T16:42:17.462Z,4.80
2022-12-20T16:44:45.670Z,4.80
2022-12-20T16:47:18.065Z,4.80
2022-12-20T16:49:52.361Z,4.80
2022-12-20T16:52:22.731Z,4.70
2022-12-20T16:54:51.065Z,4.80
2022-12-20T16:57:21.780Z,4.70
2022-12-20T16:59:48.934Z,4.70
2022-12-20T17:02:29.553Z,4.70
2022-12-20T17:04:57.195Z,4.70
2022-12-20T17:07:27.052Z,4.70
2022-12-20T17:09:57.335Z,4.70
2022-12-20T17:12:26.777Z,4.80
2022-12-20T17:14:56.616Z,4.80
2022-12-20T17:17:25.900Z,4.90
2022-12-20T17:19:52.869Z,4.90
2022-12-20T17:22:43.104Z,5.00
2022-12-20T17:25:18.854Z,5.00
2022-12-20T17:27:49.688Z,4.90
2022-12-20T17:30:17.332Z,4.90
2022-12-20T17:32:44.521Z,4.90
2022-12-20T17:35:19.767Z,4.80
2022-12-20T17:37:47.725Z,4.70
2022-12-20T17:40:16.095Z,4.80
2022-12-20T17:42:43.371Z,4.90
2022-12-20T17:45:23.845Z,4.90
2022-12-20T17:47:56.012Z,4.90
2022-12-20T17:50:26.538Z,4.90
2022-12-20T17:52:54.884Z,4.90
2022-12-20T17:55:27.467Z,4.80
2022-12-20T17:57:55.485Z,4.80
2022-12-20T18:00:38.407Z,4.80
2022-12-20T18:03:05.910Z,4.80
2022-12-20T18:05:33.089Z,4.80
2022-12-20T18:08:02.327Z,4.70
2022-12-20T18:10:31.720Z,4.70
2022-12-20T18:12:58.550Z,4.70
2022-12-20T18:15:25.694Z,4.70
2022-12-20T18:17:52.752Z,4.60
2022-12-20T18:20:22.240Z,4.60
2022-12-20T18:22:52.089Z,4.50
2022-12-20T18:25:19.044Z,4.50
2022-12-20T18:27:46.198Z,4.50
2022-12-20T18:30:13.238Z,4.40
2022-12-20T18:32:43.528Z,4.40
2022-12-20T18:35:11.138Z,4.40
2022-12-20T18:37:38.224Z,4.40
2022-12-20T18:40:06.121Z,4.40
2022-12-20T18:42:35.289Z,4.50
2022-12-20T18:45:05.063Z,4.50
2022-12-20T18:47:32.644Z,4.40
2022-12-20T18:49:59.887Z,4.20
2022-12-20T18:52:29.162Z,4.20
2022-12-20T18:54:56.722Z,4.20
2022-12-20T18:57:23.677Z,4.30
2022-12-20T18:59:53.762Z,4.10
2022-12-20T19:02:23.508Z,4.10
2022-12-20T19:04:50.598Z,3.90
2022-12-20T19:07:17.650Z,3.90
2022-12-20T19:09:47.194Z,3.90
2022-12-20T19:12:16.462Z,4.00
2022-12-20T19:14:46.098Z,4.00
2022-12-20T19:17:13.259Z,3.90
2022-12-20T19:19:40.752Z,3.90
2022-12-20T19:22:10.268Z,4.00
2022-12-20T19:24:39.864Z,3.90
2022-12-20T19:27:10.588Z,4.00
2022-12-20T19:29:37.668Z,4.00
2022-12-20T19:32:07.658Z,3.90
2022-12-20T19:34:34.759Z,3.90
2022-12-20T19:37:01.772Z,3.90
2022-12-20T19:39:30.364Z,3.90
2022-12-20T19:42:23.154Z,4.00
2022-12-20T19:44:44.315Z,4.00
2022-12-20T19:47:11.813Z,4.00
2022-12-20T19:49:38.943Z,4.00
2022-12-20T19:52:09.318Z,4.10
2022-12-20T19:54:36.351Z,4.10
2022-12-20T19:57:03.503Z,4.10
2022-12-20T19:59:30.868Z,4.10
2022-12-20T20:02:00.645Z,4.10
2022-12-20T20:04:30.610Z,4.10
2022-12-20T20:06:57.674Z,4.20
2022-12-20T20:09:24.765Z,4.20
2022-12-20T20:11:51.975Z,4.20
2022-12-20T20:14:18.964Z,4.20
2022-12-20T20:16:46.218Z,4.10
2022-12-20T20:19:13.210Z,4.20
2022-12-20T20:21:42.513Z,4.20
2022-12-20T20:24:09.926Z,4.30
2022-12-20T20:26:36.838Z,4.30
2022-12-20T20:29:04.659Z,4.20
2022-12-20T20:31:31.895Z,4.30
2022-12-20T20:34:01.796Z,4.20
2022-12-20T20:36:30.111Z,4.10
2022-12-20T20:38:59.600Z,4.10
2022-12-20T20:41:26.676Z,4.10
2022-12-20T20:43:53.632Z,4.20
2022-12-20T20:46:25.237Z,4.20
2022-12-20T20:48:52.304Z,4.20
2022-12-20T20:51:19.445Z,4.20
2022-12-20T20:53:48.861Z,4.20
2022-12-20T20:56:18.483Z,4.20
2022-12-20T20:58:50.004Z,4.30
2022-12-20T21:01:19.409Z,4.30
2022-12-20T21:03:46.640Z,4.40
2022-12-20T21:09:00.923Z,4.60
2022-12-20T21:11:28.210Z,4.60
2022-12-20T21:13:55.453Z,4.70
2022-12-20T21:16:24.832Z,4.70
2022-12-20T21:18:52.603Z,4.80
2022-12-20T21:21:20.417Z,4.70
2022-12-20T21:23:48.019Z,4.50
2022-12-20T21:26:18.834Z,4.60
2022-12-20T21:28:45.880Z,4.40
2022-12-20T21:31:16.609Z,4.20
2022-12-20T21:33:45.853Z,4.20
2022-12-20T21:36:18.188Z,4.30
2022-12-20T21:38:50.428Z,4.40
2022-12-20T21:41:20.863Z,4.40
2022-12-20T21:43:50.056Z,4.50
2022-12-20T21:46:17.256Z,4.40
2022-12-20T21:48:47.195Z,4.40
2022-12-20T21:51:15.452Z,4.40
2022-12-20T21:53:45.627Z,4.50
2022-12-20T21:56:12.658Z,4.50
2022-12-20T21:58:39.636Z,4.50
2022-12-20T22:01:08.097Z,4.60
2022-12-20T22:03:38.001Z,4.60
2022-12-20T22:06:08.044Z,4.70
2022-12-20T22:08:37.085Z,4.70
2022-12-20T22:11:06.049Z,4.60
2022-12-20T22:13:41.479Z,4.60
2022-12-20T22:16:15.672Z,4.50
2022-12-20T22:18:43.138Z,4.50
2022-12-20T22:21:11.190Z,4.60
2022-12-20T22:23:38.370Z,4.60
2022-12-20T22:26:06.282Z,4.60
2022-12-20T22:28:35.846Z,4.60
2022-12-20T22:31:07.317Z,4.50
2022-12-20T22:33:37.380Z,4.50
2022-12-20T22:36:04.556Z,4.50
2022-12-20T22:38:37.484Z,4.50
2022-12-20T22:41:10.190Z,4.50
2022-12-20T22:43:37.691Z,4.50
2022-12-20T22:46:07.853Z,4.40
2022-12-20T22:48:34.785Z,4.40
2022-12-20T22:51:12.540Z,4.30
2022-12-20T22:53:40.333Z,4.20
2022-12-20T22:56:07.526Z,4.30
2022-12-20T22:58:35.031Z,4.30
2022-12-20T23:01:05.762Z,4.40
2022-12-20T23:03:32.881Z,4.50
2022-12-20T23:06:04.656Z,4.50
2022-12-20T23:08:37.182Z,4.50
2022-12-20T23:11:33.757Z,4.50
2022-12-20T23:14:22.284Z,4.50
2022-12-20T23:16:49.445Z,4.60
2022-12-20T23:19:16.356Z,4.60
2022-12-20T23:22:04.578Z,4.60
2022-12-20T23:24:31.427Z,4.60
2022-12-20T23:26:58.579Z,4.60
2022-12-20T23:29:30.501Z,4.60
2022-12-20T23:31:57.451Z,4.70
2022-12-20T23:34:24.551Z,4.70
2022-12-20T23:36:51.455Z,4.70
2022-12-20T23:39:18.330Z,4.70
2022-12-20T23:41:47.387Z,4.60
2022-12-20T23:44:14.338Z,4.60
2022-12-20T23:46:41.528Z,4.60
2022-12-20T23:49:08.735Z,4.50
2022-12-20T23:51:43.032Z,4.40
2022-12-20T23:54:10.437Z,4.40
2022-12-20T23:56:44.743Z,4.30
2022-12-20T23:59:11.616Z,4.10
